Time;durP1;ratioP1;P1;durP2;ratioP2;P2;SDS_P1;SDS_P2;PMS_P1;PMS_P2;Temp;Humidity;BMP_temperature;BMP_pressure;BME280_temperature;BME280_humidity;BME280_pressure;Samples;Min_cycle;Max_cycle;Signal;HPM_P1;HPM_P2
2021/09/21 00:01:19;;;;;;;10.40;9.60;;;21.70;38.40;;;;;;4974229;28;20178;-59
2021/09/21 00:03:45;;;;;;;9.90;9.10;;;21.70;38.10;;;;;;4974157;28;20672;-59
2021/09/21 00:06:10;;;;;;;9.50;8.90;;;21.70;38.10;;;;;;4974012;28;20178;-57
2021/09/21 00:08:36;;;;;;;10.77;9.97;;;21.70;38.30;;;;;;4973953;28;20207;-59
2021/09/21 00:11:04;;;;;;;9.63;8.93;;;21.70;38.40;;;;;;4974201;28;20174;-59
2021/09/21 00:13:30;;;;;;;10.07;9.43;;;21.70;38.40;;;;;;4973876;28;20425;-59
2021/09/21 00:15:57;;;;;;;10.37;9.43;;;21.70;38.40;;;;;;4973929;28;20938;-59
2021/09/21 00:18:23;;;;;;;10.90;10.00;;;21.70;38.40;;;;;;4973473;28;20497;-59
2021/09/21 00:20:48;;;;;;;10.40;9.50;;;21.70;38.40;;;;;;4973613;28;20442;-59
2021/09/21 00:23:14;;;;;;;10.20;9.40;;;21.70;38.40;;;;;;4973827;28;20187;-59
2021/09/21 00:25:40;;;;;;;9.37;8.40;;;21.70;38.40;;;;;;4973805;28;20186;-59
2021/09/21 00:28:05;;;;;;;10.07;9.37;;;21.70;38.50;;;;;;4973475;28;20206;-59
2021/09/21 00:30:31;;;;;;;10.83;10.00;;;21.60;38.40;;;;;;4973580;28;20461;-59
2021/09/21 00:33:05;;;;;;;10.50;9.60;;;21.70;38.50;;;;;;4973659;28;20183;-59
2021/09/21 00:35:33;;;;;;;10.57;9.77;;;21.60;38.50;;;;;;4973785;28;20221;-59
2021/09/21 00:38:01;;;;;;;9.70;8.90;;;21.60;38.40;;;;;;4973401;28;20964;-59
2021/09/21 00:40:27;;;;;;;9.87;9.20;;;21.60;38.30;;;;;;4973549;28;20409;-59
2021/09/21 00:42:52;;;;;;;9.87;9.07;;;21.60;38.20;;;;;;4973538;28;20804;-59
2021/09/21 00:45:24;;;;;;;9.73;9.03;;;21.60;38.40;;;;;;4973460;28;20414;-59
2021/09/21 00:47:50;;;;;;;9.17;8.53;;;21.60;38.40;;;;;;4973084;28;20190;-59
2021/09/21 00:50:17;;;;;;;9.80;8.93;;;21.60;38.40;;;;;;4973377;28;20807;-59
2021/09/21 00:52:42;;;;;;;9.30;8.63;;;21.60;38.50;;;;;;4973543;28;20406;-59
2021/09/21 00:55:08;;;;;;;9.53;8.83;;;21.60;38.40;;;;;;4973488;28;20425;-59
2021/09/21 00:57:36;;;;;;;8.73;8.13;;;21.60;38.40;;;;;;4972996;28;20181;-59
2021/09/21 01:00:02;;;;;;;8.83;8.23;;;21.60;38.40;;;;;;4973169;28;20418;-59
2021/09/21 01:02:28;;;;;;;9.47;8.77;;;21.60;38.50;;;;;;4973017;28;20493;-59
2021/09/21 01:04:53;;;;;;;8.97;8.37;;;21.60;38.50;;;;;;4973290;28;20502;-58
2021/09/21 01:07:19;;;;;;;9.83;9.13;;;21.60;38.50;;;;;;4973038;28;20179;-59
2021/09/21 01:09:44;;;;;;;9.80;9.20;;;21.60;38.50;;;;;;4973080;28;20210;-59
2021/09/21 01:12:11;;;;;;;9.60;8.70;;;21.60;38.40;;;;;;4973223;28;20182;-59
2021/09/21 01:14:37;;;;;;;10.53;9.83;;;21.60;38.50;;;;;;4973095;28;20190;-59
2021/09/21 01:17:02;;;;;;;9.83;9.03;;;21.60;38.30;;;;;;4972853;28;20422;-59
2021/09/21 01:19:28;;;;;;;9.23;8.53;;;21.60;38.50;;;;;;4973050;28;20202;-59
2021/09/21 01:21:54;;;;;;;9.40;8.60;;;21.60;38.50;;;;;;4973906;28;20265;-58
2021/09/21 01:24:21;;;;;;;9.53;8.83;;;21.60;38.50;;;;;;4977144;28;20274;-59
2021/09/21 01:26:47;;;;;;;9.60;8.83;;;21.60;38.50;;;;;;4976891;28;20178;-59
2021/09/21 01:29:12;;;;;;;9.13;8.50;;;21.60;38.50;;;;;;4976931;28;20602;-59
2021/09/21 01:31:40;;;;;;;9.40;8.70;;;21.60;38.40;;;;;;4976832;28;20967;-59
2021/09/21 01:34:06;;;;;;;8.53;7.87;;;21.60;38.50;;;;;;4977103;28;20265;-59
2021/09/21 01:36:32;;;;;;;9.13;8.33;;;21.60;38.50;;;;;;4976986;28;20829;-59
2021/09/21 01:38:58;;;;;;;8.87;8.17;;;21.60;38.50;;;;;;4976594;28;20426;-59
2021/09/21 01:41:24;;;;;;;8.97;8.37;;;21.60;38.50;;;;;;4976825;28;20182;-59
2021/09/21 01:43:49;;;;;;;8.23;7.63;;;21.60;38.50;;;;;;4976780;28;20493;-59
2021/09/21 01:46:20;;;;;;;8.63;8.07;;;21.60;38.50;;;;;;4976616;28;20178;-59
2021/09/21 01:48:47;;;;;;;9.40;8.50;;;21.60;38.50;;;;;;4976378;28;20329;-59
2021/09/21 01:51:26;;;;;;;9.90;9.10;;;21.60;38.60;;;;;;4976736;28;20805;-59
2021/09/21 01:59:07;;;;;;;8.63;8.03;;;21.50;38.60;;;;;;4976470;28;20457;-59
2021/09/21 02:01:33;;;;;;;7.47;6.97;;;21.50;38.60;;;;;;4976316;28;20818;-59
2021/09/21 02:04:04;;;;;;;8.70;8.10;;;21.50;38.60;;;;;;4976586;28;20550;-59
2021/09/21 02:06:35;;;;;;;8.70;8.00;;;21.50;38.50;;;;;;4976377;28;20764;-59
2021/09/21 02:09:02;;;;;;;8.77;8.17;;;21.50;38.60;;;;;;4976072;28;20464;-59
2021/09/21 02:11:27;;;;;;;8.83;8.17;;;21.50;38.60;;;;;;4976142;28;20414;-59
2021/09/21 02:13:57;;;;;;;9.67;8.97;;;21.50;38.60;;;;;;4976154;28;20403;-59
2021/09/21 02:16:24;;;;;;;9.37;8.60;;;21.50;38.60;;;;;;4976213;28;20265;-59
2021/09/21 02:18:50;;;;;;;8.57;7.97;;;21.50;38.60;;;;;;4975816;28;20437;-59
2021/09/21 02:21:15;;;;;;;8.33;7.73;;;21.50;38.60;;;;;;4975935;28;20434;-58
2021/09/21 02:23:41;;;;;;;8.40;7.80;;;21.50;38.60;;;;;;4975975;28;20175;-59
2021/09/21 02:26:06;;;;;;;8.67;8.00;;;21.50;38.50;;;;;;4975999;28;20182;-59
2021/09/21 02:28:32;;;;;;;8.47;7.87;;;21.50;38.60;;;;;;4975663;28;20255;-59
2021/09/21 02:30:57;;;;;;;8.50;7.90;;;21.50;38.60;;;;;;4975844;28;20257;-59
2021/09/21 02:33:23;;;;;;;7.40;6.90;;;21.50;38.60;;;;;;4974756;28;20180;-59
2021/09/21 02:35:48;;;;;;;8.73;8.13;;;21.50;38.60;;;;;;4975847;28;20183;-57
2021/09/21 02:38:14;;;;;;;9.10;8.40;;;21.50;38.50;;;;;;4975465;28;20198;-59
2021/09/21 02:40:40;;;;;;;7.93;7.43;;;21.50;38.60;;;;;;4975760;28;20174;-59
2021/09/21 02:43:06;;;;;;;8.60;8.00;;;21.50;38.50;;;;;;4975655;28;20175;-59
2021/09/21 02:45:31;;;;;;;8.03;7.53;;;21.50;39.40;;;;;;4975707;28;20421;-59
2021/09/21 02:47:57;;;;;;;8.37;7.87;;;21.50;38.70;;;;;;4975453;28;20203;-58
2021/09/21 02:50:22;;;;;;;8.63;8.13;;;21.50;38.80;;;;;;4975496;28;20245;-58
2021/09/21 02:52:48;;;;;;;8.57;7.97;;;21.50;38.80;;;;;;4975490;28;20187;-59
2021/09/21 02:55:14;;;;;;;9.00;8.40;;;21.50;38.80;;;;;;4975445;28;20202;-59
2021/09/21 02:57:39;;;;;;;8.60;8.00;;;21.50;38.80;;;;;;4975119;28;20171;-59
2021/09/21 03:00:08;;;;;;;8.33;7.73;;;21.50;38.70;;;;;;4975393;28;20659;-59
2021/09/21 03:02:34;;;;;;;9.10;8.23;;;21.50;38.80;;;;;;4973953;28;20193;-57
2021/09/21 03:05:04;;;;;;;8.57;8.07;;;21.50;38.70;;;;;;4975311;28;20407;-59
2021/09/21 03:07:38;;;;;;;7.90;7.40;;;21.50;38.70;;;;;;4975043;28;20890;-59
2021/09/21 03:17:46;;;;;;;8.30;7.70;;;21.50;38.70;;;;;;4974967;28;20413;-59
2021/09/21 03:20:12;;;;;;;7.67;7.13;;;21.50;39.40;;;;;;4974831;28;20512;-58
2021/09/21 03:22:37;;;;;;;9.00;8.40;;;21.40;38.60;;;;;;4975049;28;20174;-59
2021/09/21 03:25:04;;;;;;;8.57;7.97;;;21.50;38.70;;;;;;4974836;28;20477;-59
2021/09/21 03:27:29;;;;;;;8.33;7.83;;;21.50;38.80;;;;;;4974735;28;20269;-55
2021/09/21 03:29:55;;;;;;;7.83;7.33;;;21.40;38.70;;;;;;4974593;28;20552;-59
2021/09/21 03:32:21;;;;;;;7.33;6.93;;;21.50;38.80;;;;;;4974848;28;20190;-59
2021/09/21 03:34:46;;;;;;;7.97;7.47;;;21.50;38.70;;;;;;4974891;28;20179;-58
2021/09/21 03:37:12;;;;;;;9.37;8.77;;;21.50;38.80;;;;;;4974488;28;20638;-59
2021/09/21 03:39:38;;;;;;;8.93;8.33;;;21.50;38.80;;;;;;4974452;28;20271;-59
2021/09/21 03:42:05;;;;;;;8.07;7.57;;;21.50;38.80;;;;;;4974620;28;20183;-59
2021/09/21 03:44:31;;;;;;;7.83;7.33;;;21.50;38.80;;;;;;4974115;28;20938;-57
2021/09/21 03:46:56;;;;;;;7.90;7.40;;;21.50;38.80;;;;;;4974287;28;20465;-58
2021/09/21 03:49:23;;;;;;;8.43;7.77;;;21.50;38.70;;;;;;4974259;28;20865;-59
2021/09/21 03:51:49;;;;;;;8.23;7.63;;;21.50;38.80;;;;;;4974345;28;20170;-59
2021/09/21 03:54:15;;;;;;;8.33;7.70;;;21.50;38.70;;;;;;4974306;28;20928;-59
2021/09/21 03:56:41;;;;;;;8.00;7.47;;;21.50;38.60;;;;;;4974055;28;20414;-59
2021/09/21 03:59:07;;;;;;;7.63;7.20;;;21.50;38.80;;;;;;4974170;28;20674;-59
2021/09/21 04:01:33;;;;;;;7.63;7.17;;;21.50;38.80;;;;;;4974137;28;20205;-59
2021/09/21 04:03:59;;;;;;;7.73;7.13;;;21.50;38.80;;;;;;4974373;28;20767;-59
2021/09/21 04:06:26;;;;;;;8.40;7.80;;;21.50;39.00;;;;;;4974092;28;20410;-59
2021/09/21 04:08:52;;;;;;;8.13;7.53;;;21.50;39.10;;;;;;4973754;28;20513;-59
2021/09/21 04:11:18;;;;;;;8.53;7.93;;;21.50;39.20;;;;;;4974118;28;20764;-59
2021/09/21 04:13:43;;;;;;;8.40;7.83;;;21.50;39.30;;;;;;4973963;28;20417;-57
2021/09/21 04:16:09;;;;;;;8.43;7.73;;;21.50;39.40;;;;;;4973864;28;20633;-59
2021/09/21 04:18:35;;;;;;;8.27;7.67;;;21.50;39.40;;;;;;4973617;28;20543;-59
2021/09/21 04:21:01;;;;;;;7.67;7.17;;;21.50;39.60;;;;;;4973700;28;20204;-59
2021/09/21 04:23:27;;;;;;;8.00;7.50;;;21.50;39.90;;;;;;4973773;28;20410;-59
2021/09/21 04:25:52;;;;;;;7.97;7.47;;;21.50;40.00;;;;;;4973635;28;20182;-57
2021/09/21 04:28:20;;;;;;;7.73;7.13;;;21.40;40.00;;;;;;4973456;28;20673;-59
2021/09/21 04:30:51;;;;;;;7.70;7.10;;;21.50;40.00;;;;;;4973544;28;20194;-59
2021/09/21 04:33:17;;;;;;;8.20;7.60;;;21.50;40.10;;;;;;4973844;28;20414;-59
2021/09/21 04:35:43;;;;;;;8.33;7.83;;;21.50;39.30;;;;;;4973442;28;20897;-60
2021/09/21 04:38:09;;;;;;;8.60;8.00;;;21.50;38.80;;;;;;4973474;28;20848;-60
2021/09/21 04:40:35;;;;;;;8.47;7.87;;;21.50;38.90;;;;;;4973571;28;20580;-60
2021/09/21 04:43:01;;;;;;;9.40;8.50;;;21.40;38.90;;;;;;4973519;28;20433;-60
2021/09/21 04:45:26;;;;;;;8.90;8.30;;;21.50;39.40;;;;;;4973422;28;20259;-60
2021/09/21 04:47:52;;;;;;;12.03;10.87;;;21.50;39.80;;;;;;4972004;28;20185;-63
2021/09/21 04:50:17;;;;;;;10.90;10.10;;;21.60;39.90;;;;;;4967017;28;20206;-64
2021/09/21 04:52:43;;;;;;;11.53;10.33;;;21.60;40.20;;;;;;4973320;28;20183;-63
2021/09/21 04:55:09;;;;;;;10.50;9.60;;;21.70;40.40;;;;;;4973338;28;20671;-61
2021/09/21 04:57:35;;;;;;;11.67;10.57;;;21.70;40.40;;;;;;4972213;28;20179;-62
2021/09/21 05:00:00;;;;;;;11.77;10.77;;;21.70;40.30;;;;;;4973130;28;20421;-62
2021/09/21 05:02:26;;;;;;;11.40;10.23;;;21.70;40.20;;;;;;4973297;28;20657;-61
2021/09/21 05:04:51;;;;;;;10.60;9.70;;;21.70;40.30;;;;;;4973089;28;20323;-61
2021/09/21 05:07:17;;;;;;;10.73;9.63;;;21.70;40.30;;;;;;4955937;28;20788;-60
2021/09/21 05:09:43;;;;;;;11.60;10.70;;;21.70;40.30;;;;;;4953768;28;20623;-62
2021/09/21 05:12:08;;;;;;;10.70;9.90;;;21.70;40.30;;;;;;4953520;29;20658;-63
2021/09/21 05:14:34;;;;;;;10.73;9.50;;;21.70;40.30;;;;;;4962116;28;20197;-63
2021/09/21 05:17:00;;;;;;;11.27;10.33;;;21.70;40.20;;;;;;4972869;28;20174;-63
2021/09/21 05:19:26;;;;;;;10.87;9.97;;;21.70;40.10;;;;;;4972920;28;20209;-60
2021/09/21 05:21:52;;;;;;;12.27;11.23;;;21.70;39.90;;;;;;4972901;28;20553;-61
2021/09/21 05:24:17;;;;;;;11.30;10.30;;;21.70;39.90;;;;;;4972831;28;20186;-58
2021/09/21 05:26:43;;;;;;;7.70;7.20;;;21.70;39.90;;;;;;4972204;28;20191;-63
2021/09/21 05:29:09;;;;;;;8.80;8.30;;;21.70;39.70;;;;;;4972528;28;20253;-63
2021/09/21 05:31:34;;;;;;;9.07;8.17;;;21.70;39.40;;;;;;4972875;28;20171;-59
2021/09/21 05:34:01;;;;;;;8.17;7.60;;;21.60;38.80;;;;;;4972148;28;20638;-61
2021/09/21 05:36:27;;;;;;;8.70;8.10;;;21.70;38.50;;;;;;4972918;28;20590;-63
2021/09/21 05:38:52;;;;;;;10.77;9.87;;;21.70;38.50;;;;;;4972404;28;20529;-62
2021/09/21 05:41:18;;;;;;;9.53;8.70;;;21.70;38.40;;;;;;4972776;28;20489;-60
2021/09/21 05:43:43;;;;;;;9.77;8.97;;;21.60;38.20;;;;;;4972530;28;20175;-61
2021/09/21 05:46:09;;;;;;;9.57;8.73;;;21.60;38.30;;;;;;4972570;28;20329;-61
2021/09/21 05:48:34;;;;;;;10.23;8.60;;;21.60;38.10;;;;;;4972629;28;20745;-60
2021/09/21 05:51:00;;;;;;;9.50;8.70;;;21.60;38.10;;;;;;4972726;28;20221;-58
2021/09/21 05:53:25;;;;;;;9.67;8.03;;;21.60;38.00;;;;;;4972625;28;20520;-59
2021/09/21 05:55:51;;;;;;;9.30;8.60;;;21.60;38.00;;;;;;4972562;28;20175;-62
2021/09/21 05:58:16;;;;;;;9.67;8.67;;;21.60;38.00;;;;;;4972325;28;20274;-63
2021/09/21 06:00:42;;;;;;;9.40;8.60;;;21.60;37.80;;;;;;4972634;28;20229;-63
2021/09/21 06:03:08;;;;;;;9.90;8.97;;;21.60;37.90;;;;;;4972543;28;20198;-63
2021/09/21 06:05:34;;;;;;;9.07;8.20;;;21.60;37.60;;;;;;4972684;28;20319;-63
2021/09/21 06:07:59;;;;;;;9.30;8.43;;;21.60;37.90;;;;;;4973255;28;20434;-62
2021/09/21 06:10:25;;;;;;;9.97;9.27;;;21.60;37.60;;;;;;4976050;28;20195;-62
2021/09/21 06:12:51;;;;;;;8.70;8.10;;;21.60;37.40;;;;;;4975804;28;20637;-61
2021/09/21 06:15:19;;;;;;;9.13;8.33;;;21.60;37.20;;;;;;4976150;28;20410;-62
2021/09/21 06:17:47;;;;;;;9.40;8.60;;;21.60;37.10;;;;;;4975856;28;20272;-61
2021/09/21 06:20:13;;;;;;;11.30;9.10;;;21.60;36.90;;;;;;4975787;28;20425;-63
2021/09/21 06:22:40;;;;;;;8.97;8.27;;;21.60;36.80;;;;;;4975724;28;20915;-63
2021/09/21 06:25:07;;;;;;;7.90;7.33;;;21.60;36.70;;;;;;4975708;28;20460;-61
2021/09/21 06:27:34;;;;;;;9.53;8.50;;;21.60;36.70;;;;;;4975482;28;20409;-62
2021/09/21 06:30:02;;;;;;;10.67;9.87;;;21.60;36.60;;;;;;4975994;28;20469;-62
2021/09/21 06:32:28;;;;;;;9.13;8.53;;;21.60;36.50;;;;;;4975767;28;20505;-61
2021/09/21 06:34:53;;;;;;;9.37;8.77;;;21.50;36.20;;;;;;4975763;28;20506;-58
2021/09/21 06:37:19;;;;;;;8.90;8.20;;;21.50;36.30;;;;;;4975395;28;20564;-60
2021/09/21 06:39:44;;;;;;;10.00;8.50;;;21.60;36.20;;;;;;4975466;28;20282;-59
2021/09/21 06:42:10;;;;;;;7.80;7.20;;;21.50;36.10;;;;;;4975473;28;20241;-60
2021/09/21 06:44:35;;;;;;;9.47;8.30;;;21.50;36.30;;;;;;4975452;28;20189;-60
2021/09/21 06:47:01;;;;;;;9.00;8.40;;;21.60;36.30;;;;;;4975276;28;20185;-60
2021/09/21 06:49:26;;;;;;;8.73;8.03;;;21.50;36.10;;;;;;4975198;28;20242;-60
2021/09/21 06:51:52;;;;;;;8.33;7.73;;;21.60;36.00;;;;;;4975411;28;20637;-60
2021/09/21 06:54:17;;;;;;;8.67;8.03;;;21.50;35.90;;;;;;4975098;28;20633;-59
2021/09/21 06:56:43;;;;;;;9.57;8.87;;;21.50;35.90;;;;;;4975006;28;20193;-60
2021/09/21 06:59:08;;;;;;;8.53;7.83;;;21.50;35.90;;;;;;4975082;28;20217;-60
2021/09/21 07:01:34;;;;;;;8.10;7.53;;;21.50;35.80;;;;;;4975269;28;20186;-60
2021/09/21 07:03:59;;;;;;;8.87;8.17;;;21.50;35.80;;;;;;4975368;28;20179;-63
2021/09/21 07:06:25;;;;;;;8.73;8.03;;;21.50;35.70;;;;;;4975187;28;20222;-63
2021/09/21 07:08:50;;;;;;;8.27;7.57;;;21.50;35.90;;;;;;4974908;28;20254;-62
2021/09/21 07:11:18;;;;;;;8.80;8.00;;;21.50;35.70;;;;;;4975022;28;20234;-63
2021/09/21 07:13:44;;;;;;;8.47;7.97;;;21.40;35.70;;;;;;4975280;28;20183;-63
2021/09/21 07:16:09;;;;;;;8.37;7.77;;;21.40;35.40;;;;;;4974926;28;20414;-63
2021/09/21 07:18:35;;;;;;;8.10;7.50;;;21.40;34.50;;;;;;4974889;28;20205;-62
2021/09/21 07:21:00;;;;;;;9.47;8.63;;;21.40;34.00;;;;;;4974135;28;20677;-63
2021/09/21 07:23:26;;;;;;;7.70;7.20;;;21.40;33.50;;;;;;4974889;28;20185;-62
2021/09/21 07:25:51;;;;;;;8.67;8.07;;;21.40;33.10;;;;;;4974838;28;20171;-62
2021/09/21 07:28:17;;;;;;;8.60;7.80;;;21.40;32.70;;;;;;4974637;28;20324;-63
2021/09/21 07:30:42;;;;;;;8.27;7.67;;;21.40;32.50;;;;;;4974672;28;20242;-63
2021/09/21 07:33:13;;;;;;;8.33;7.67;;;21.40;32.40;;;;;;4974838;28;20559;-61
2021/09/21 07:35:39;;;;;;;10.73;8.70;;;21.30;32.20;;;;;;4974698;28;20671;-62
2021/09/21 07:38:05;;;;;;;7.40;6.90;;;21.30;32.10;;;;;;4974234;28;20896;-62
2021/09/21 07:40:34;;;;;;;8.10;7.60;;;21.30;32.00;;;;;;4974683;28;20421;-63
2021/09/21 07:43:00;;;;;;;9.03;8.33;;;21.30;31.70;;;;;;4974843;28;20182;-62
2021/09/21 07:45:27;;;;;;;8.27;7.73;;;21.30;31.50;;;;;;4974557;28;20469;-63
2021/09/21 07:47:53;;;;;;;7.70;7.13;;;21.30;31.00;;;;;;4974198;28;20416;-63
2021/09/21 07:50:19;;;;;;;8.07;7.40;;;21.30;31.00;;;;;;4974529;28;20904;-62
2021/09/21 07:52:44;;;;;;;7.60;7.10;;;21.30;31.00;;;;;;4974180;28;20575;-63
2021/09/21 07:55:10;;;;;;;8.20;7.70;;;21.30;30.80;;;;;;4974142;28;20527;-63
2021/09/21 07:57:40;;;;;;;8.60;7.90;;;21.20;30.90;;;;;;4974027;28;20171;-62
2021/09/21 08:00:08;;;;;;;7.97;7.37;;;21.30;31.00;;;;;;4972645;28;20968;-60
2021/09/21 08:02:33;;;;;;;7.57;7.07;;;21.30;31.00;;;;;;4974004;28;20418;-60
2021/09/21 08:04:59;;;;;;;7.73;7.23;;;21.40;31.10;;;;;;4974052;28;21024;-60
2021/09/21 08:07:28;;;;;;;7.30;6.80;;;21.40;31.10;;;;;;4973648;28;20233;-61
2021/09/21 08:09:54;;;;;;;7.67;7.10;;;21.40;31.30;;;;;;4974106;28;20229;-61
2021/09/21 08:12:20;;;;;;;7.20;6.80;;;21.40;31.50;;;;;;4973858;28;20410;-61
2021/09/21 08:14:49;;;;;;;7.97;7.40;;;21.40;31.50;;;;;;4973917;28;20417;-61
2021/09/21 08:17:15;;;;;;;7.50;7.00;;;21.40;31.60;;;;;;4973714;28;20501;-59
2021/09/21 08:19:41;;;;;;;8.07;7.40;;;21.40;31.70;;;;;;4973605;28;21067;-61
2021/09/21 08:22:07;;;;;;;7.30;6.90;;;21.40;31.50;;;;;;4973705;28;20179;-61
2021/09/21 08:24:32;;;;;;;7.50;7.00;;;21.40;31.60;;;;;;4956899;28;20187;-61
2021/09/21 08:26:58;;;;;;;7.40;6.90;;;21.40;31.80;;;;;;4954194;28;20183;-61
2021/09/21 08:29:23;;;;;;;7.30;6.90;;;21.40;31.60;;;;;;4954111;28;20203;-64
2021/09/21 08:31:49;;;;;;;7.20;6.70;;;21.50;31.60;;;;;;4953584;28;20376;-63
2021/09/21 08:34:15;;;;;;;7.20;6.60;;;21.50;31.80;;;;;;4954223;28;20182;-62
2021/09/21 08:36:41;;;;;;;7.57;7.17;;;21.40;31.50;;;;;;4954076;28;20415;-61
2021/09/21 08:39:06;;;;;;;7.53;6.93;;;21.40;31.20;;;;;;4954109;28;20198;-62
2021/09/21 08:41:32;;;;;;;8.20;7.60;;;21.40;31.10;;;;;;4954449;28;20183;-63
2021/09/21 08:43:57;;;;;;;7.00;6.40;;;21.40;31.10;;;;;;4953041;29;20195;-63
2021/09/21 08:46:23;;;;;;;7.30;6.80;;;21.40;31.10;;;;;;4954214;28;20186;-64
2021/09/21 08:48:49;;;;;;;7.37;6.87;;;21.40;31.10;;;;;;4953926;28;20278;-63
2021/09/21 08:51:15;;;;;;;8.10;7.50;;;21.40;31.10;;;;;;4953757;28;20721;-62
2021/09/21 08:53:41;;;;;;;7.80;7.30;;;21.40;31.10;;;;;;4953600;28;20182;-63
2021/09/21 08:56:07;;;;;;;8.50;7.60;;;21.40;31.10;;;;;;4953923;28;20790;-64
2021/09/21 08:58:33;;;;;;;7.60;6.93;;;21.40;31.10;;;;;;4953780;28;20203;-63
2021/09/21 09:01:12;;;;;;;7.80;7.10;;;21.40;31.10;;;;;;4952935;28;20560;-63
2021/09/21 09:03:38;;;;;;;8.30;7.70;;;21.40;31.10;;;;;;4953820;28;20183;-64
2021/09/21 09:06:07;;;;;;;7.80;7.10;;;21.40;31.10;;;;;;4953776;28;20426;-65
2021/09/21 09:08:38;;;;;;;7.60;7.00;;;21.40;31.10;;;;;;4948993;28;20199;-63
2021/09/21 09:11:15;;;;;;;8.03;7.40;;;21.40;31.10;;;;;;4973050;28;20462;-65
2021/09/21 09:13:42;;;;;;;7.40;6.73;;;21.40;31.10;;;;;;4965193;28;20464;-66
2021/09/21 09:16:13;;;;;;;8.07;7.40;;;21.40;31.10;;;;;;4972684;28;20779;-65
2021/09/21 09:18:40;;;;;;;8.10;7.60;;;21.50;31.20;;;;;;4972643;28;20426;-65
2021/09/21 09:21:06;;;;;;;7.50;7.00;;;21.50;31.20;;;;;;4980600;28;20819;-65
2021/09/21 09:23:32;;;;;;;7.33;6.83;;;21.50;31.20;;;;;;4971711;28;20422;-63
2021/09/21 09:25:58;;;;;;;6.83;6.43;;;21.50;31.20;;;;;;4964597;28;20182;-64
2021/09/21 09:28:26;;;;;;;7.70;7.20;;;21.50;31.20;;;;;;4972509;28;20602;-65
2021/09/21 09:30:54;;;;;;;11.80;5.93;;;21.50;31.20;;;;;;4972594;28;20453;-63
2021/09/21 09:33:20;;;;;;;6.97;6.37;;;21.50;31.20;;;;;;4972851;28;20417;-65
2021/09/21 09:35:48;;;;;;;7.07;6.50;;;21.50;31.20;;;;;;4972943;28;20414;-65
2021/09/21 09:38:16;;;;;;;6.93;6.43;;;21.50;31.20;;;;;;4972538;28;20453;-65
2021/09/21 09:40:48;;;;;;;8.90;8.00;;;21.50;31.20;;;;;;4972727;28;20515;-64
2021/09/21 09:43:18;;;;;;;7.07;6.57;;;21.50;31.20;;;;;;4973961;28;20560;-65
2021/09/21 09:45:46;;;;;;;6.90;6.50;;;21.50;31.20;;;;;;4976513;28;20967;-64
2021/09/21 09:48:15;;;;;;;8.40;7.77;;;21.50;31.20;;;;;;4976262;28;20438;-64
2021/09/21 09:50:42;;;;;;;7.43;6.93;;;21.50;31.20;;;;;;4976411;28;20458;-63
2021/09/21 09:53:25;;;;;;;7.17;6.60;;;21.50;31.20;;;;;;4976479;28;20422;-64
2021/09/21 09:55:56;;;;;;;7.30;6.80;;;21.60;31.30;;;;;;4976209;28;20446;-64
2021/09/21 09:58:22;;;;;;;8.30;7.77;;;21.50;31.20;;;;;;4976200;28;20438;-66
2021/09/21 10:00:56;;;;;;;7.20;6.70;;;21.50;31.20;;;;;;4976088;28;20418;-62
2021/09/21 10:03:22;;;;;;;7.40;6.90;;;21.50;31.20;;;;;;4976277;28;20418;-65
2021/09/21 10:05:49;;;;;;;6.73;6.33;;;21.60;31.20;;;;;;4976035;28;20512;-67
2021/09/21 10:08:16;;;;;;;7.20;6.70;;;21.60;31.20;;;;;;4975636;28;20277;-65
2021/09/21 10:10:41;;;;;;;6.97;6.53;;;21.60;30.50;;;;;;4976002;28;20454;-64
2021/09/21 10:13:13;;;;;;;7.40;6.90;;;21.60;31.20;;;;;;4976132;28;20421;-64
2021/09/21 10:15:40;;;;;;;6.97;6.40;;;21.60;31.20;;;;;;4976124;28;20193;-66
2021/09/21 10:18:16;;;;;;;7.27;6.80;;;21.60;31.30;;;;;;4975773;28;20438;-68
2021/09/21 10:20:41;;;;;;;6.60;6.20;;;21.60;31.20;;;;;;4975560;28;20566;-65
2021/09/21 10:23:09;;;;;;;7.63;7.10;;;21.70;31.40;;;;;;4976159;28;20418;-66
2021/09/21 10:25:38;;;;;;;7.43;6.83;;;21.70;31.30;;;;;;4975651;28;20171;-64
2021/09/21 10:28:17;;;;;;;11.77;7.50;;;21.70;31.30;;;;;;4975316;28;20959;-65
2021/09/21 10:30:58;;;;;;;7.70;7.13;;;21.80;31.40;;;;;;4975440;28;20465;-66
2021/09/21 10:33:26;;;;;;;6.90;6.40;;;21.80;31.40;;;;;;4975639;28;20477;-67
2021/09/21 10:35:52;;;;;;;7.10;6.70;;;21.80;31.10;;;;;;4975864;28;20410;-66
2021/09/21 10:38:19;;;;;;;7.27;6.77;;;21.80;31.10;;;;;;4975402;28;20437;-64
2021/09/21 10:40:48;;;;;;;6.67;6.27;;;21.80;31.10;;;;;;4975724;28;20446;-65
2021/09/21 10:43:21;;;;;;;7.33;6.83;;;21.80;31.00;;;;;;4975386;28;20416;-66
2021/09/21 10:45:53;;;;;;;7.30;6.70;;;21.80;30.70;;;;;;4975148;28;20498;-67
2021/09/21 10:48:21;;;;;;;7.30;6.80;;;21.80;30.70;;;;;;4975441;28;20862;-65
2021/09/21 10:50:58;;;;;;;7.00;6.60;;;21.80;30.50;;;;;;4975627;28;20806;-67
2021/09/21 10:53:25;;;;;;;7.30;6.90;;;21.70;30.40;;;;;;4975166;28;20413;-63
2021/09/21 10:56:11;;;;;;;7.20;6.70;;;21.70;30.50;;;;;;4974360;28;20406;-63
2021/09/21 10:58:39;;;;;;;7.17;6.77;;;21.80;30.70;;;;;;4975262;28;20426;-63
2021/09/21 11:01:06;;;;;;;8.03;7.53;;;21.80;30.80;;;;;;4975255;28;20410;-63
2021/09/21 11:03:36;;;;;;;7.03;6.63;;;21.80;31.00;;;;;;4975172;28;20472;-63
2021/09/21 11:06:02;;;;;;;8.70;8.10;;;21.80;30.80;;;;;;4975300;28;20417;-63
2021/09/21 11:08:29;;;;;;;6.80;6.40;;;21.80;30.80;;;;;;4974804;28;20460;-63
2021/09/21 11:10:59;;;;;;;7.03;6.63;;;21.80;30.50;;;;;;4974912;28;20233;-63
2021/09/21 11:13:36;;;;;;;8.27;7.67;;;21.80;30.50;;;;;;4975234;28;20406;-64
2021/09/21 11:16:08;;;;;;;7.37;6.87;;;21.80;30.50;;;;;;4974968;28;20398;-63
2021/09/21 11:18:35;;;;;;;7.80;7.30;;;21.80;30.60;;;;;;4975015;28;20422;-64
2021/09/21 11:21:03;;;;;;;7.67;7.23;;;21.80;30.80;;;;;;4974480;28;20995;-64
2021/09/21 11:23:32;;;;;;;7.33;6.70;;;21.80;30.50;;;;;;4974650;28;20497;-63
2021/09/21 11:26:00;;;;;;;7.13;6.53;;;21.80;30.90;;;;;;4974834;28;20785;-63
2021/09/21 11:28:28;;;;;;;7.37;6.97;;;21.80;30.40;;;;;;4974376;28;20434;-64
2021/09/21 11:30:55;;;;;;;7.00;6.50;;;21.80;30.60;;;;;;4974441;28;20465;-64
2021/09/21 11:33:24;;;;;;;7.20;6.70;;;21.80;30.20;;;;;;4974590;28;20759;-63
2021/09/21 11:35:52;;;;;;;6.37;5.97;;;21.80;30.30;;;;;;4974311;28;20865;-63
2021/09/21 11:38:18;;;;;;;7.27;6.80;;;21.80;30.40;;;;;;4974114;28;20524;-63
2021/09/21 11:40:45;;;;;;;7.33;6.73;;;21.80;30.40;;;;;;4974269;28;20410;-63
2021/09/21 11:43:13;;;;;;;7.40;6.80;;;21.80;30.50;;;;;;4974523;28;20418;-62
2021/09/21 11:45:44;;;;;;;6.90;6.50;;;21.90;30.40;;;;;;4974347;28;20418;-64
2021/09/21 11:48:11;;;;;;;6.63;6.23;;;21.90;30.50;;;;;;4973962;28;20963;-63
2021/09/21 11:50:38;;;;;;;7.07;6.60;;;21.90;30.50;;;;;;4974383;28;20472;-63
2021/09/21 11:53:06;;;;;;;7.13;6.73;;;21.90;30.40;;;;;;4974329;28;20457;-63
2021/09/21 11:55:34;;;;;;;7.03;6.60;;;21.90;30.60;;;;;;4974219;28;20441;-64
2021/09/21 11:58:02;;;;;;;7.07;6.57;;;21.90;30.00;;;;;;4973950;28;20426;-65
2021/09/21 12:00:55;;;;;;;6.60;6.20;;;21.90;30.00;;;;;;4974087;28;20428;-67
2021/09/21 12:03:23;;;;;;;7.93;7.23;;;21.90;30.50;;;;;;4970301;28;20426;-65
2021/09/21 12:05:51;;;;;;;7.43;6.97;;;21.90;29.90;;;;;;4973758;28;20971;-66
2021/09/21 12:08:20;;;;;;;7.47;6.97;;;21.90;30.00;;;;;;4974070;28;20438;-66
2021/09/21 12:10:52;;;;;;;7.33;6.80;;;21.80;29.90;;;;;;4973825;28;20454;-66
2021/09/21 12:13:20;;;;;;;7.33;6.83;;;21.90;30.00;;;;;;4973894;28;20470;-65
2021/09/21 12:15:51;;;;;;;7.40;6.90;;;21.90;30.00;;;;;;4973959;28;20410;-66
2021/09/21 12:18:17;;;;;;;7.03;6.63;;;21.90;29.90;;;;;;4973449;28;20943;-66
2021/09/21 12:20:57;;;;;;;7.40;6.90;;;21.90;29.90;;;;;;4973588;28;20441;-66
2021/09/21 12:23:28;;;;;;;6.80;6.30;;;21.90;30.00;;;;;;4973708;28;20175;-67
2021/09/21 12:25:55;;;;;;;6.40;5.90;;;21.90;29.90;;;;;;4973563;28;20418;-67
2021/09/21 12:28:36;;;;;;;7.40;6.90;;;21.90;29.80;;;;;;4973414;28;20438;-65
2021/09/21 12:31:18;;;;;;;6.90;6.50;;;21.90;29.90;;;;;;4973730;28;20480;-67
2021/09/21 12:33:48;;;;;;;7.97;7.47;;;21.90;29.90;;;;;;4988468;28;21005;-66
2021/09/21 12:36:24;;;;;;;7.73;7.23;;;21.90;29.90;;;;;;4973458;28;20411;-65
2021/09/21 12:39:04;;;;;;;7.80;7.30;;;21.90;30.00;;;;;;4973485;28;20441;-67
2021/09/21 12:41:38;;;;;;;7.40;6.90;;;22.00;30.00;;;;;;4973536;28;20896;-66
2021/09/21 12:44:08;;;;;;;7.27;6.87;;;22.00;30.10;;;;;;4973619;28;20407;-65
2021/09/21 12:46:35;;;;;;;7.63;6.97;;;21.90;30.00;;;;;;4973283;28;20414;-66
2021/09/21 12:49:01;;;;;;;7.17;6.67;;;22.00;30.10;;;;;;4973357;28;20528;-64
2021/09/21 12:51:36;;;;;;;7.80;7.27;;;22.00;30.00;;;;;;4973492;28;20532;-65
2021/09/21 12:54:04;;;;;;;9.17;6.90;;;21.90;29.90;;;;;;4973391;28;20433;-65
2021/09/21 12:56:31;;;;;;;7.63;6.93;;;21.90;29.90;;;;;;4973338;28;20417;-65
2021/09/21 12:59:09;;;;;;;7.90;7.40;;;21.90;29.80;;;;;;4972810;28;20461;-63